Sumach, Washington
Current Conditions -  °F | °C
As of 11:53 PM on Thursday 27 Nov 2014 (Local Time) from KYKM Reporting Station
Clear Clear  
Wind Chill: 55°   Ceiling: Unl
Heat Index: 55°   Visibility: 10mi
Dew Point: 42°   Wind: 18mph
Humidity: 62%   Direction: 190°S
Pressure: 29.69"   Gusts: 29mph
Location:  46.562°N, 120.899°W
Report Text: KYKM 280753Z AUTO 19016G25KT 10SM CLR 13/06 A2969 RMK AO2 PK WND 20028/0710 SLP051 T01280056 401780017
Loading
Personal Weather Stations






























Interactive Weather Map New forecast layout! Learn more

10-Day Weather Forecast

Advertisements
Track Severe Weather on mobile